createdAt,value
2019-05-06T00:04:29.838Z,6.97
2019-05-06T00:09:34.933Z,6.17
2019-05-06T00:14:43.646Z,9.37
2019-05-06T00:19:56.935Z,7.00
2019-05-06T00:25:07.932Z,5.23
2019-05-06T00:30:14.913Z,6.60
2019-05-06T00:35:19.811Z,5.62
2019-05-06T00:40:29.628Z,5.43
2019-05-06T00:45:34.431Z,6.37
2019-05-06T00:50:39.132Z,8.47
2019-05-06T00:55:44.653Z,10.33
2019-05-06T01:00:49.415Z,9.17
2019-05-06T01:05:54.800Z,6.27
2019-05-06T01:11:01.247Z,6.37
2019-05-06T01:16:06.036Z,10.20
2019-05-06T01:21:10.742Z,8.10
2019-05-06T01:26:17.551Z,16.62
2019-05-06T01:31:24.707Z,7.00
2019-05-06T01:36:29.007Z,6.73
2019-05-06T01:41:44.719Z,10.07
2019-05-06T01:46:50.228Z,10.37
2019-05-06T01:51:56.745Z,6.90
2019-05-06T01:57:04.457Z,10.07
2019-05-06T02:02:09.867Z,10.93
2019-05-06T02:07:14.667Z,9.93
2019-05-06T02:12:20.614Z,8.03
2019-05-06T02:17:25.463Z,8.93
2019-05-06T02:22:38.601Z,10.33
2019-05-06T02:27:44.671Z,12.83
2019-05-06T02:32:55.931Z,11.97
2019-05-06T02:38:04.633Z,8.97
2019-05-06T02:43:08.268Z,7.87
2019-05-06T02:48:23.133Z,5.90
2019-05-06T02:53:28.180Z,10.50
2019-05-06T02:58:33.265Z,11.77
2019-05-06T03:03:43.350Z,6.27
2019-05-06T03:08:46.570Z,14.53
2019-05-06T03:13:53.695Z,17.30
2019-05-06T03:19:04.162Z,8.57
2019-05-06T03:24:47.482Z,8.57
2019-05-06T03:29:53.952Z,11.17
2019-05-06T03:35:24.763Z,11.40
2019-05-06T03:40:13.902Z,7.50
2019-05-06T03:45:28.280Z,9.37
2019-05-06T03:50:33.718Z,9.17
2019-05-06T03:55:46.478Z,12.43
2019-05-06T04:00:49.620Z,11.03
2019-05-06T04:05:55.905Z,8.93
2019-05-06T04:11:04.215Z,11.17
2019-05-06T04:16:18.337Z,10.83
2019-05-06T04:21:32.782Z,9.30
2019-05-06T04:26:46.615Z,10.70
2019-05-06T04:31:53.983Z,11.07
2019-05-06T04:36:58.059Z,12.00
2019-05-06T04:42:03.798Z,13.70
2019-05-06T04:47:08.716Z,13.53
2019-05-06T04:52:13.974Z,11.80
2019-05-06T04:57:19.216Z,19.20
2019-05-06T05:02:23.995Z,11.47
2019-05-06T05:07:28.823Z,15.07
2019-05-06T05:12:48.424Z,9.53
2019-05-06T05:18:13.011Z,9.33
2019-05-06T05:23:18.012Z,6.13
2019-05-06T05:28:22.997Z,13.00
2019-05-06T05:33:28.744Z,8.37
2019-05-06T05:38:33.472Z,9.70
2019-05-06T05:44:02.432Z,7.87
2019-05-06T05:49:32.461Z,8.93
2019-05-06T05:54:37.984Z,9.40
2019-05-06T05:59:43.136Z,10.40
2019-05-06T06:04:57.511Z,5.43
2019-05-06T06:10:19.330Z,7.10
2019-05-06T06:15:42.389Z,7.40
2019-05-06T06:21:17.574Z,13.13
2019-05-06T06:26:12.142Z,11.85
2019-05-06T06:31:25.655Z,8.40
2019-05-06T06:36:49.524Z,9.30
2019-05-06T06:41:54.405Z,5.17
2019-05-06T06:47:02.078Z,7.03
2019-05-06T06:52:11.263Z,7.63
2019-05-06T06:57:22.895Z,8.13
2019-05-06T07:02:48.343Z,13.87
2019-05-06T07:07:53.283Z,8.30
2019-05-06T07:12:59.185Z,6.50
2019-05-06T07:18:04.970Z,5.47
2019-05-06T07:23:25.612Z,8.27
2019-05-06T07:28:32.455Z,5.40
2019-05-06T07:33:37.811Z,4.27
2019-05-06T07:38:52.357Z,4.83
2019-05-06T07:44:13.789Z,7.67
2019-05-06T07:49:18.677Z,5.97
2019-05-06T07:54:23.493Z,5.87
2019-05-06T07:59:29.031Z,4.40
2019-05-06T08:04:35.271Z,4.80
2019-05-06T08:09:44.460Z,5.28
2019-05-06T08:14:52.397Z,5.50
2019-05-06T08:19:57.624Z,5.33
2019-05-06T08:25:09.230Z,5.70
2019-05-06T08:30:14.874Z,4.33
2019-05-06T08:35:19.848Z,2.23
2019-05-06T08:40:26.480Z,2.83
2019-05-06T08:45:32.481Z,3.00
2019-05-06T08:50:54.894Z,3.65
2019-05-06T08:56:01.917Z,3.35
2019-05-06T09:01:09.521Z,7.20
2019-05-06T09:06:26.550Z,3.58
2019-05-06T09:11:25.711Z,4.97
2019-05-06T09:16:32.932Z,3.70
2019-05-06T09:21:36.943Z,3.67
2019-05-06T09:27:15.786Z,6.00
2019-05-06T09:32:24.298Z,3.62
2019-05-06T09:37:35.159Z,6.93
2019-05-06T09:42:42.600Z,4.22
2019-05-06T09:48:03.559Z,3.80
2019-05-06T09:53:13.515Z,2.98
2019-05-06T09:58:19.205Z,3.20
2019-05-06T10:03:24.016Z,5.47
2019-05-06T10:08:32.858Z,4.10
2019-05-06T10:13:37.748Z,6.20
2019-05-06T10:18:42.584Z,3.03
2019-05-06T10:23:47.421Z,2.98
2019-05-06T10:29:12.706Z,3.12
2019-05-06T10:34:17.959Z,5.70
2019-05-06T10:39:25.593Z,4.10
2019-05-06T10:44:53.138Z,4.83
2019-05-06T10:50:07.439Z,4.10
2019-05-06T10:55:12.385Z,4.70
2019-05-06T11:00:18.966Z,4.10
2019-05-06T11:05:24.265Z,2.93
2019-05-06T11:10:38.036Z,6.20
2019-05-06T11:15:35.970Z,2.50
2019-05-06T11:20:43.812Z,5.28
2019-05-06T11:25:49.030Z,4.12
2019-05-06T11:31:17.982Z,2.40
2019-05-06T11:36:32.356Z,3.08
2019-05-06T11:41:37.332Z,2.52
2019-05-06T11:46:43.068Z,3.08
2019-05-06T11:51:55.345Z,4.57
2019-05-06T11:57:00.425Z,3.83
2019-05-06T12:02:06.793Z,6.60
2019-05-06T12:07:15.660Z,3.40
2019-05-06T12:12:19.137Z,2.17
2019-05-06T12:17:24.517Z,3.60
2019-05-06T12:22:37.058Z,3.65
2019-05-06T12:27:45.134Z,6.92
2019-05-06T12:33:13.092Z,3.30
2019-05-06T12:38:27.504Z,6.15
2019-05-06T12:43:51.870Z,4.60
2019-05-06T12:48:56.713Z,5.22
2019-05-06T12:54:03.509Z,3.27
2019-05-06T12:59:08.996Z,5.37
2019-05-06T13:04:13.923Z,5.42
2019-05-06T13:09:18.953Z,4.60
2019-05-06T13:14:32.940Z,4.45
2019-05-06T13:19:37.223Z,3.33
2019-05-06T13:24:43.084Z,7.83
2019-05-06T13:29:48.234Z,4.10
2019-05-06T13:34:53.018Z,3.12
2019-05-06T13:39:57.989Z,7.50
2019-05-06T13:45:03.257Z,2.90
2019-05-06T13:50:12.093Z,5.35
2019-05-06T13:55:16.935Z,3.47
2019-05-06T14:00:22.573Z,3.63
2019-05-06T14:05:28.350Z,2.37
2019-05-06T14:10:33.299Z,2.58
2019-05-06T14:15:38.074Z,6.15
2019-05-06T14:20:43.043Z,4.00
2019-05-06T14:26:06.887Z,4.42
2019-05-06T14:31:25.349Z,4.67
2019-05-06T14:36:28.956Z,4.37
2019-05-06T14:41:33.820Z,4.57
2019-05-06T14:46:55.904Z,4.28
2019-05-06T14:52:02.765Z,2.90
2019-05-06T14:57:12.329Z,2.45
2019-05-06T15:02:18.427Z,6.08
2019-05-06T15:07:23.342Z,3.17
2019-05-06T15:12:28.067Z,4.97
2019-05-06T15:17:36.526Z,3.35
2019-05-06T15:22:39.431Z,2.27
2019-05-06T15:27:44.225Z,7.80
2019-05-06T15:32:48.891Z,4.15
2019-05-06T15:38:02.100Z,6.62
2019-05-06T15:43:06.278Z,5.60
2019-05-06T15:48:12.861Z,5.53
2019-05-06T15:53:17.803Z,4.72
2019-05-06T15:58:22.970Z,6.65
2019-05-06T16:03:27.793Z,7.12
2019-05-06T16:08:32.493Z,4.03
2019-05-06T16:13:37.610Z,4.50
2019-05-06T16:18:42.439Z,7.15
2019-05-06T16:24:07.091Z,7.10
2019-05-06T16:29:13.013Z,3.47
2019-05-06T16:34:18.245Z,5.75
2019-05-06T16:39:23.147Z,5.60
2019-05-06T16:44:28.145Z,3.00
2019-05-06T16:49:33.729Z,3.85
2019-05-06T16:54:38.885Z,3.98
2019-05-06T16:59:43.592Z,5.35
2019-05-06T17:05:07.340Z,4.42
2019-05-06T17:10:12.218Z,2.20
2019-05-06T17:15:17.244Z,2.80
2019-05-06T17:20:23.434Z,5.08
2019-05-06T17:25:32.353Z,3.33
2019-05-06T17:30:53.587Z,3.35
2019-05-06T17:35:57.659Z,2.70
2019-05-06T17:41:03.007Z,5.12
2019-05-06T17:46:08.291Z,3.87
2019-05-06T17:51:14.880Z,4.90
2019-05-06T17:56:22.541Z,4.73
2019-05-06T18:01:42.045Z,3.70
2019-05-06T18:06:46.926Z,3.43
2019-05-06T18:11:59.043Z,3.93
2019-05-06T18:16:59.222Z,4.85
2019-05-06T18:22:04.590Z,3.33
2019-05-06T18:27:09.502Z,5.67
2019-05-06T18:32:14.414Z,3.07
2019-05-06T18:37:19.142Z,3.50
2019-05-06T18:42:24.034Z,2.92
2019-05-06T18:47:28.824Z,3.17
2019-05-06T18:52:33.826Z,1.27
2019-05-06T18:57:43.747Z,1.70
2019-05-06T19:02:49.255Z,1.00
2019-05-06T19:07:57.238Z,1.95
2019-05-06T19:13:02.291Z,1.42
2019-05-06T19:18:07.658Z,1.77
2019-05-06T19:23:16.921Z,2.08
2019-05-06T19:28:22.098Z,0.72
2019-05-06T19:33:27.270Z,1.80
2019-05-06T19:38:33.777Z,1.20
2019-05-06T19:43:39.818Z,2.23
2019-05-06T19:48:44.733Z,2.20
2019-05-06T19:53:49.645Z,2.37
2019-05-06T19:58:54.573Z,1.60
2019-05-06T20:03:59.390Z,1.77
2019-05-06T20:09:45.492Z,2.10
2019-05-06T20:14:52.358Z,2.77
2019-05-06T20:19:57.038Z,1.60
2019-05-06T20:25:03.073Z,1.87
2019-05-06T20:30:08.432Z,3.00
2019-05-06T20:35:19.432Z,2.20
2019-05-06T20:40:24.621Z,1.57
2019-05-06T20:45:35.071Z,2.30
2019-05-06T20:50:43.202Z,3.00
2019-05-06T20:55:48.179Z,1.80
2019-05-06T21:00:53.276Z,2.53
2019-05-06T21:05:58.636Z,3.63
2019-05-06T21:11:04.198Z,6.10
2019-05-06T21:16:08.905Z,2.72
2019-05-06T21:21:13.837Z,2.83
2019-05-06T21:26:19.442Z,3.40
2019-05-06T21:31:24.273Z,2.70
2019-05-06T21:36:29.031Z,3.20
2019-05-06T21:41:33.910Z,5.80
2019-05-06T21:46:38.720Z,4.77
2019-05-06T21:51:43.527Z,3.50
2019-05-06T21:56:48.378Z,5.33
2019-05-06T22:01:53.302Z,3.77
2019-05-06T22:06:58.179Z,3.70
2019-05-06T22:12:03.414Z,9.07
2019-05-06T22:17:08.696Z,3.07
2019-05-06T22:22:14.784Z,4.50
2019-05-06T22:27:22.836Z,4.30
2019-05-06T22:32:27.599Z,2.90
2019-05-06T22:37:39.275Z,3.70
2019-05-06T22:42:44.056Z,3.33
2019-05-06T22:47:48.749Z,4.40
2019-05-06T22:52:53.650Z,2.73
2019-05-06T22:57:58.358Z,3.67
2019-05-06T23:03:07.462Z,3.73
2019-05-06T23:08:12.404Z,4.03
2019-05-06T23:13:17.346Z,2.90
2019-05-06T23:18:22.268Z,4.40
2019-05-06T23:23:34.563Z,3.30
2019-05-06T23:28:39.296Z,4.90
2019-05-06T23:33:44.908Z,4.43
2019-05-06T23:39:25.929Z,2.77
2019-05-06T23:45:07.243Z,3.43
2019-05-06T23:50:48.449Z,5.15
2019-05-06T23:56:29.344Z,5.37
